Pampa, TX

11:51 AM CDT on October 02, 2014 (GMT -0500)
Perry Lefors | Change Station
CLOSE
Current Station
Airport
Location: Pampa,
Elevation: 3245 ft
Nearby Weather Stations

Elev 3245 ft 35.61 °N, 101.00 °W | Updated 16 minutes ago

Scattered Clouds
Scattered Clouds
58 °F
Feels Like 58 °F
N
23
Wind Variable Wind from North
Gusts 32 mph

Today
High -- | Low -- °F
--% Chance of Precip.
Yesterday
High -- | Low -- °F
Precip. -- in
7:39 AM 7:26 PM
First Quarter, 60% visible
Pressure 30.03 in
Visibility 10.0 miles
Clouds Scattered Clouds 1800 ft
Scattered Clouds 2500 ft
Dew Point -8 °F
Humidity 7%
Rainfall 0.00 in
Snow Depth Not available.
UV 5 out of 12
Pollen 9.30 out of 12
Air Quality Not available.
Flu Activity Not available.
METAR KPPA 021635Z AUTO 35020G28KT 10SM SCT018 SCT025 14/M22 A3003 RMK AO2 T01431221

More Conditions Fewer Conditions

Pressure 30.03 in
Visibility 10.0 miles
Clouds Scattered Clouds 1800 ft
Scattered Clouds 2500 ft
Dew Point -8 °F
Humidity 7%
Rainfall 0.00 in
Snow Depth Not available.
UV 5 out of 12
Pollen 9.30 out of 12
Air Quality Not available.
Flu Activity Not available.
METAR KPPA 021635Z AUTO 35020G28KT 10SM SCT018 SCT025 14/M22 A3003 RMK AO2 T01431221

More Conditions Fewer Conditions

10-Day Weather Forecast

Almanac

Astronomy

Oct. 02, 2014 Rise Set
Actual Time 7:39 AM CDT 7:26 PM CDT
Civil Twilight 7:14 AM CDT 7:51 PM CDT
Nautical Twilight 6:44 AM CDT 8:21 PM CDT
Astronomical Twilight 6:15 AM CDT 8:50 PM CDT
Moon 3:23 PM CDT 1:09 AM CDT
Length of Visible Light 12h 37m
Length of Day
11h 46m
Tomorrow will be 2m 13s shorter.
First Quarter, 60% of the Moon is Illuminated
Today
First Quarter
Oct 8
Full
Oct 15
Last Quarter
Oct 23
New
Oct 30
First Quarter

Today's Extremes

State Highs State Lows

Community

WunderPhotos

Upload Photos

1,758,294 photos uploaded!

WunderBlogs® & News

Nearby

Snow Depth

Station Depth Elevation
No new snow has been reported.

Earthquake Activity

City Distance Mag. Time & Date
No recent earthquake activity has been reported nearby.
Minimum magnitude displayed is 2.5.

Coastal Water Temperatures

Place Temperature
No Stations Reporting

Nearby Weather Stations